Time;durP1;ratioP1;P1;durP2;ratioP2;P2;SDS_P1;SDS_P2;PMS_P1;PMS_P2;Temp;Humidity;BMP_temperature;BMP_pressure;BME280_temperature;BME280_humidity;BME280_pressure;Samples;Min_cycle;Max_cycle;Signal;HPM_P1;HPM_P2
2023/10/22 00:01:37;;;;;;;11.80;6.85;;;;;;;6.35;100.00;98750.94;5158298;27;20086;-60
2023/10/22 00:04:04;;;;;;;12.93;6.80;;;;;;;6.29;100.00;98764.00;5158422;27;20169;-60
2023/10/22 00:06:30;;;;;;;14.65;7.03;;;;;;;6.36;100.00;98766.94;5158159;27;20118;-60
2023/10/22 00:08:56;;;;;;;12.15;6.93;;;;;;;6.50;100.00;98769.25;5158382;27;20051;-60
2023/10/22 00:11:22;;;;;;;12.15;6.85;;;;;;;6.36;100.00;98768.84;5158011;27;20396;-61
2023/10/22 00:13:48;;;;;;;11.48;6.80;;;;;;;6.32;100.00;98778.84;5158315;27;20043;-60
2023/10/22 00:16:14;;;;;;;14.73;6.25;;;;;;;6.49;100.00;98772.31;5157932;27;20145;-60
2023/10/22 00:18:40;;;;;;;20.45;6.55;;;;;;;6.20;100.00;98768.81;5158173;27;20162;-60
2023/10/22 00:21:09;;;;;;;13.38;6.68;;;;;;;6.35;100.00;98756.38;5157909;27;20133;-60
2023/10/22 00:23:35;;;;;;;11.00;6.95;;;;;;;6.44;100.00;98756.25;5158268;27;20050;-60
2023/10/22 00:26:02;;;;;;;31.70;13.00;;;;;;;6.36;100.00;98757.94;5157718;27;20401;-61
2023/10/22 00:28:28;;;;;;;12.98;6.10;;;;;;;6.30;100.00;98757.44;5160889;27;20047;-60
2023/10/22 00:30:53;;;;;;;15.70;7.28;;;;;;;6.15;100.00;98746.47;5161482;27;20141;-60
2023/10/22 00:33:19;;;;;;;11.10;6.10;;;;;;;6.34;100.00;98746.63;5161717;27;20047;-60
2023/10/22 00:35:54;;;;;;;9.68;6.70;;;;;;;6.67;100.00;98746.38;5161482;27;20312;-60
2023/10/22 00:38:19;;;;;;;;;;;;;;;6.67;100.00;98749.09;5161717;27;20043;-60
2023/10/22 00:40:46;;;;;;;16.75;6.43;;;;;;;6.39;100.00;98768.16;5161671;27;19929;-60
2023/10/22 00:43:12;;;;;;;12.45;6.30;;;;;;;6.48;100.00;98770.75;5161344;27;20046;-60
2023/10/22 00:45:38;;;;;;;14.00;6.97;;;;;;;6.36;100.00;98766.13;5161634;27;20042;-60
2023/10/22 00:48:05;;;;;;;13.10;6.22;;;;;;;6.40;100.00;98760.78;5161192;27;20416;-60
2023/10/22 00:50:32;;;;;;;14.38;6.05;;;;;;;6.43;100.00;98760.09;5161698;27;20134;-61
2023/10/22 00:52:58;;;;;;;20.23;6.13;;;;;;;6.33;100.00;98750.47;5161042;27;20051;-60
2023/10/22 00:55:24;;;;;;;12.15;6.00;;;;;;;6.40;100.00;98749.88;5161339;27;20050;-60
2023/10/22 00:57:51;;;;;;;11.25;6.28;;;;;;;6.57;100.00;98735.97;5161279;27;20050;-60
2023/10/22 01:00:19;;;;;;;11.60;6.13;;;;;;;6.20;100.00;98744.31;5161185;27;20137;-60
2023/10/22 01:02:45;;;;;;;9.90;5.93;;;;;;;6.43;100.00;98727.41;5161137;27;20046;-60
2023/10/22 01:05:12;;;;;;;15.00;7.43;;;;;;;6.47;100.00;98723.66;5161039;27;20047;-60
2023/10/22 01:07:38;;;;;;;15.88;7.43;;;;;;;6.32;100.00;98717.03;5161065;27;20396;-61
2023/10/22 01:10:05;;;;;;;14.88;6.90;;;;;;;6.32;100.00;98711.56;5160920;27;20442;-60
2023/10/22 01:12:34;;;;;;;13.77;6.82;;;;;;;6.47;100.00;98712.75;5161190;27;20046;-60
2023/10/22 01:15:01;;;;;;;17.05;7.10;;;;;;;6.61;100.00;98728.69;5160774;27;20058;-60
2023/10/22 01:17:27;;;;;;;9.75;5.80;;;;;;;6.42;100.00;98720.38;5161143;27;20372;-60
2023/10/22 01:19:53;;;;;;;15.93;5.63;;;;;;;6.29;100.00;98722.38;5160719;27;20068;-60
2023/10/22 01:22:19;;;;;;;11.30;5.57;;;;;;;6.64;100.00;98714.38;5160667;27;20043;-61
2023/10/22 01:24:46;;;;;;;7.07;5.25;;;;;;;6.46;100.00;98722.06;5160856;27;20058;-60
2023/10/22 01:27:12;;;;;;;7.40;4.88;;;;;;;6.58;100.00;98713.03;5160822;27;20142;-61
2023/10/22 01:29:38;;;;;;;11.98;5.72;;;;;;;6.86;100.00;98723.88;5160623;27;20384;-60
2023/10/22 01:32:05;;;;;;;15.98;5.40;;;;;;;6.55;100.00;98738.25;5160783;27;20042;-60
2023/10/22 01:34:31;;;;;;;13.27;6.32;;;;;;;6.66;100.00;98736.59;5160843;27;20046;-61
2023/10/22 01:36:57;;;;;;;7.15;4.80;;;;;;;6.71;100.00;98741.78;5160440;27;20411;-60
2023/10/22 01:39:23;;;;;;;7.35;4.40;;;;;;;6.40;100.00;98752.59;5160641;27;20073;-60
2023/10/22 01:41:50;;;;;;;12.00;5.22;;;;;;;6.65;100.00;98742.41;5160384;27;20043;-60
2023/10/22 01:44:16;;;;;;;9.57;4.65;;;;;;;6.61;100.00;98739.59;5160762;27;20055;-61
2023/10/22 01:46:42;;;;;;;6.72;4.65;;;;;;;6.52;100.00;98742.44;5160306;27;20336;-60
2023/10/22 01:49:09;;;;;;;7.63;4.50;;;;;;;6.56;100.00;98742.53;5160668;27;20469;-61
2023/10/22 01:51:35;;;;;;;12.70;4.93;;;;;;;6.67;100.00;98745.56;5160172;27;20050;-60
2023/10/22 01:54:01;;;;;;;8.77;4.55;;;;;;;6.41;100.00;98752.28;5160388;27;20324;-60
2023/10/22 01:56:27;;;;;;;11.85;4.80;;;;;;;6.31;100.00;98752.78;5160332;27;20327;-60
2023/10/22 01:58:53;;;;;;;13.23;5.22;;;;;;;6.35;100.00;98743.56;5160081;27;20061;-60
2023/10/22 02:01:19;;;;;;;10.18;5.13;;;;;;;6.72;100.00;98731.69;5160170;27;20137;-60
2023/10/22 02:03:45;;;;;;;8.38;4.43;;;;;;;6.68;100.00;98739.78;5160140;27;20054;-61
2023/10/22 02:06:12;;;;;;;13.02;4.97;;;;;;;6.98;100.00;98740.16;5160147;27;20167;-60
2023/10/22 02:08:38;;;;;;;14.43;6.35;;;;;;;6.99;100.00;98755.34;5160008;27;20331;-60
2023/10/22 02:11:04;;;;;;;9.38;5.28;;;;;;;6.75;100.00;98753.56;5160274;27;20057;-60
2023/10/22 02:13:30;;;;;;;15.27;5.20;;;;;;;6.65;100.00;98761.47;5159780;27;20137;-60
2023/10/22 02:15:57;;;;;;;9.32;5.03;;;;;;;6.78;100.00;98755.59;5160147;27;20059;-60
2023/10/22 02:18:23;;;;;;;17.77;6.25;;;;;;;7.11;100.00;98764.59;5159771;27;20141;-60
2023/10/22 02:20:55;;;;;;;13.45;5.63;;;;;;;7.11;100.00;98775.50;5160213;27;20380;-60
2023/10/22 02:23:21;;;;;;;11.60;5.60;;;;;;;7.06;100.00;98784.72;5159975;27;20051;-61
2023/10/22 02:25:46;;;;;;;11.82;5.65;;;;;;;7.01;100.00;98791.25;5159601;27;20058;-60
2023/10/22 02:28:12;;;;;;;12.68;5.13;;;;;;;6.75;100.00;98797.16;5159908;27;20195;-61
2023/10/22 02:30:38;;;;;;;8.40;5.10;;;;;;;6.64;100.00;98784.41;5159739;27;20047;-60
2023/10/22 02:33:05;;;;;;;43.50;7.15;;;;;;;7.00;100.00;98784.22;5159887;27;20348;-60
2023/10/22 02:35:31;;;;;;;12.85;5.07;;;;;;;7.08;100.00;98783.25;5159576;27;20061;-60
2023/10/22 02:37:57;;;;;;;21.05;9.35;;;;;;;6.77;100.00;98781.28;5159770;27;20083;-61
2023/10/22 02:40:22;;;;;;;21.23;7.63;;;;;;;7.10;100.00;98773.91;5159463;27;20074;-61
2023/10/22 02:42:48;;;;;;;14.93;6.50;;;;;;;7.32;100.00;98792.38;5159827;27;20138;-61
2023/10/22 02:45:14;;;;;;;22.42;8.13;;;;;;;7.07;100.00;98816.31;5159325;27;20417;-61
2023/10/22 02:47:40;;;;;;;22.15;9.80;;;;;;;7.26;100.00;98823.78;5159754;27;20058;-61
2023/10/22 02:50:08;;;;;;;14.52;6.10;;;;;;;6.93;100.00;98829.53;5158827;27;20340;-61
2023/10/22 02:52:34;;;;;;;20.33;8.18;;;;;;;7.11;100.00;98817.19;5159441;27;20187;-61
2023/10/22 02:55:00;;;;;;;14.95;6.47;;;;;;;7.24;100.00;98832.31;5159065;27;20376;-61
2023/10/22 02:57:25;;;;;;;15.95;6.07;;;;;;;6.89;100.00;98842.28;5159243;27;20141;-61
2023/10/22 02:59:51;;;;;;;16.02;4.93;;;;;;;6.84;100.00;98825.06;5159433;27;20074;-61
2023/10/22 03:02:19;;;;;;;10.40;4.82;;;;;;;6.97;100.00;98827.72;5158985;27;20410;-61
2023/10/22 03:04:45;;;;;;;10.13;4.88;;;;;;;6.95;100.00;98825.34;5159258;27;20046;-61
2023/10/22 03:07:11;;;;;;;26.38;7.15;;;;;;;6.78;100.00;98818.25;5159038;27;20050;-66
2023/10/22 03:09:37;;;;;;;9.05;5.60;;;;;;;6.93;100.00;98819.47;5159416;27;20137;-60
2023/10/22 03:12:04;;;;;;;7.60;5.05;;;;;;;6.82;100.00;98812.91;5158872;27;20047;-61
2023/10/22 03:14:30;;;;;;;14.82;5.55;;;;;;;7.20;100.00;98806.13;5159318;27;20440;-61
2023/10/22 03:16:56;;;;;;;15.15;5.25;;;;;;;6.93;100.00;98800.38;5158727;27;20083;-61
2023/10/22 03:19:22;;;;;;;18.60;5.78;;;;;;;6.76;100.00;98792.50;5159027;27;20046;-61
2023/10/22 03:21:48;;;;;;;21.25;5.43;;;;;;;6.74;100.00;98792.06;5158789;27;20046;-61
2023/10/22 03:24:17;;;;;;;14.13;4.88;;;;;;;6.78;100.00;98793.75;5158634;27;20054;-61
2023/10/22 03:26:43;;;;;;;11.90;6.50;;;;;;;6.85;100.00;98784.97;5158845;27;20111;-61
2023/10/22 03:29:09;;;;;;;23.80;8.93;;;;;;;6.70;100.00;98788.47;5158733;27;20141;-61
2023/10/22 03:31:35;;;;;;;40.53;8.30;;;;;;;7.05;100.00;98777.69;5158922;27;20191;-60
2023/10/22 03:34:01;;;;;;;7.18;4.72;;;;;;;6.83;100.00;98776.34;5158685;27;20373;-61
2023/10/22 03:36:27;;;;;;;7.20;5.03;;;;;;;7.18;100.00;98786.59;5158850;27;20412;-61
2023/10/22 03:38:52;;;;;;;15.40;6.00;;;;;;;7.15;100.00;98796.25;5158581;27;20141;-61
2023/10/22 03:41:19;;;;;;;26.40;5.15;;;;;;;6.71;100.00;98806.38;5158812;27;20383;-61
2023/10/22 03:43:45;;;;;;;14.10;5.00;;;;;;;6.80;100.00;98804.31;5158413;27;20133;-61
2023/10/22 03:46:11;;;;;;;29.15;6.22;;;;;;;6.81;100.00;98800.44;5158848;27;20427;-61
2023/10/22 03:48:37;;;;;;;11.77;5.22;;;;;;;6.46;100.00;98802.97;5158540;27;20066;-60
2023/10/22 03:51:03;;;;;;;25.52;5.07;;;;;;;6.94;100.00;98782.88;5158519;27;20051;-61
2023/10/22 03:53:29;;;;;;;24.80;5.07;;;;;;;6.95;100.00;98787.19;5158517;27;20137;-61
2023/10/22 03:55:55;;;;;;;11.80;5.45;;;;;;;7.05;100.00;98792.13;5158165;27;20495;-61
2023/10/22 03:58:22;;;;;;;17.52;5.18;;;;;;;6.93;100.00;98784.03;5158578;27;20078;-61
2023/10/22 04:00:49;;;;;;;10.32;5.30;;;;;;;7.11;100.00;98783.69;5157864;27;20137;-61
2023/10/22 04:03:14;;;;;;;9.70;5.13;;;;;;;7.35;100.00;98791.69;5157445;27;20050;-61
2023/10/22 04:05:40;;;;;;;8.77;4.90;;;;;;;6.97;100.00;98812.16;5157998;27;20050;-61
2023/10/22 04:08:07;;;;;;;9.75;4.93;;;;;;;6.98;100.00;98810.22;5158499;27;20051;-61
2023/10/22 04:10:34;;;;;;;11.77;5.43;;;;;;;6.98;100.00;98810.22;5157928;27;20438;-61
2023/10/22 04:13:01;;;;;;;14.15;5.28;;;;;;;7.27;100.00;98809.03;5158504;27;20056;-60
2023/10/22 04:15:28;;;;;;;10.07;5.25;;;;;;;7.02;100.00;98816.56;5157907;27;20153;-61
2023/10/22 04:17:53;;;;;;;9.20;5.07;;;;;;;6.82;100.00;98807.47;5157975;27;20495;-60
2023/10/22 04:20:20;;;;;;;9.05;5.47;;;;;;;7.23;100.00;98800.75;5158170;27;20047;-60
2023/10/22 04:22:47;;;;;;;29.25;6.32;;;;;;;6.97;100.00;98800.47;5157817;27;20439;-60
2023/10/22 04:25:13;;;;;;;8.57;4.78;;;;;;;7.13;100.00;98795.00;5158114;27;20047;-61
2023/10/22 04:27:39;;;;;;;18.42;5.30;;;;;;;6.81;100.00;98805.88;5157912;27;20119;-60
2023/10/22 04:30:07;;;;;;;28.88;5.43;;;;;;;6.94;100.00;98796.50;5157965;27;20184;-60
2023/10/22 04:32:34;;;;;;;9.82;5.32;;;;;;;7.06;100.00;98784.72;5158062;27;20099;-60
2023/10/22 04:35:00;;;;;;;15.63;6.18;;;;;;;7.20;100.00;98800.69;5158193;27;20106;-61
2023/10/22 04:37:27;;;;;;;18.88;4.55;;;;;;;6.91;100.00;98801.88;5157642;27;20362;-61
2023/10/22 04:39:53;;;;;;;19.75;5.78;;;;;;;7.04;100.00;98790.53;5157990;27;20447;-61
2023/10/22 04:42:19;;;;;;;9.43;4.28;;;;;;;7.16;100.00;98799.78;5157633;27;20127;-61
2023/10/22 04:44:45;;;;;;;9.77;4.57;;;;;;;6.99;100.00;98822.69;5158027;27;20086;-61
2023/10/22 04:47:11;;;;;;;9.23;5.03;;;;;;;7.22;100.00;98829.16;5157759;27;20065;-61
2023/10/22 04:49:38;;;;;;;10.38;5.43;;;;;;;7.04;100.00;98822.47;5157650;27;20047;-61
2023/10/22 04:52:09;;;;;;;21.88;5.40;;;;;;;7.08;100.00;98826.06;5157799;27;20046;-61
2023/10/22 04:54:34;;;;;;;8.40;4.93;;;;;;;7.11;100.00;98832.75;5157576;27;20110;-61
2023/10/22 04:57:02;;;;;;;9.80;4.97;;;;;;;6.89;100.00;98836.84;5157477;27;20059;-60
2023/10/22 04:59:28;;;;;;;29.50;5.88;;;;;;;6.89;100.00;98826.72;5157443;27;20058;-61
2023/10/22 05:01:54;;;;;;;10.73;5.38;;;;;;;6.87;100.00;98822.78;5157799;27;20043;-61
2023/10/22 05:04:20;;;;;;;18.05;5.90;;;;;;;6.89;100.00;98807.66;5157381;27;20047;-61
2023/10/22 05:06:47;;;;;;;36.78;9.90;;;;;;;7.03;100.00;98805.31;5157682;27;20319;-61
2023/10/22 05:09:12;;;;;;;20.70;7.93;;;;;;;6.88;100.00;98803.34;5157302;27;20184;-60
2023/10/22 05:11:39;;;;;;;22.60;6.07;;;;;;;6.94;100.00;98793.78;5157552;27;20047;-61
2023/10/22 05:14:05;;;;;;;41.92;6.80;;;;;;;6.88;100.00;98787.00;5159633;27;20050;-61
2023/10/22 05:16:31;;;;;;;67.00;6.47;;;;;;;7.02;100.00;98776.47;5160907;27;20053;-61
2023/10/22 05:18:57;;;;;;;66.28;5.93;;;;;;;6.69;100.00;98768.59;5160944;27;20319;-61
2023/10/22 05:21:22;;;;;;;50.20;6.45;;;;;;;6.93;100.00;98750.50;5160539;27;20126;-60
2023/10/22 05:23:49;;;;;;;12.50;5.78;;;;;;;6.57;100.00;98771.38;5160887;27;20051;-60
2023/10/22 05:26:15;;;;;;;79.68;6.07;;;;;;;6.48;100.00;98755.19;5160770;27;20141;-60
2023/10/22 05:28:41;;;;;;;28.70;5.60;;;;;;;6.69;100.00;98751.44;5160741;27;20053;-60
2023/10/22 05:31:18;;;;;;;38.83;5.90;;;;;;;6.92;100.00;98741.53;5160589;27;20114;-60
2023/10/22 05:33:45;;;;;;;23.50;6.20;;;;;;;7.20;100.00;98746.94;5160939;27;20089;-61
2023/10/22 05:36:15;;;;;;;87.85;7.72;;;;;;;6.97;100.00;98754.94;5160204;27;20067;-61
2023/10/22 05:38:41;;;;;;;47.20;6.88;;;;;;;7.12;100.00;98761.50;5160796;27;20408;-61
2023/10/22 05:41:08;;;;;;;60.85;7.50;;;;;;;6.78;100.00;98769.22;5160111;27;20057;-60
2023/10/22 05:43:34;;;;;;;52.22;7.13;;;;;;;6.76;100.00;98776.16;5160475;27;20046;-60
2023/10/22 05:45:59;;;;;;;12.10;6.22;;;;;;;6.51;100.00;98768.13;5160247;27;20364;-60
2023/10/22 05:48:25;;;;;;;57.70;7.22;;;;;;;6.58;100.00;98756.63;5160345;27;20050;-61
2023/10/22 05:50:51;;;;;;;62.28;8.18;;;;;;;6.94;100.00;98747.44;5160535;27;20129;-61
2023/10/22 05:53:17;;;;;;;70.18;8.93;;;;;;;6.90;100.00;98748.47;5160058;27;20137;-60
2023/10/22 05:55:43;;;;;;;72.20;8.40;;;;;;;6.95;100.00;98740.84;5160442;27;20062;-61
2023/10/22 05:58:10;;;;;;;98.03;8.77;;;;;;;7.02;100.00;98743.75;5159738;27;20313;-60
2023/10/22 06:00:36;;;;;;;87.28;7.75;;;;;;;6.86;100.00;98751.13;5160474;27;20383;-61
2023/10/22 06:03:03;;;;;;;48.55;7.97;;;;;;;6.79;100.00;98745.50;5160045;27;20047;-61
2023/10/22 06:05:29;;;;;;;28.20;6.25;;;;;;;6.95;100.00;98737.34;5160358;27;20061;-61
2023/10/22 06:07:55;;;;;;;26.17;6.15;;;;;;;6.77;100.00;98734.16;5159862;27;20094;-61
2023/10/22 06:10:21;;;;;;;31.80;6.10;;;;;;;6.96;100.00;98725.28;5160211;27;20065;-60
2023/10/22 06:12:48;;;;;;;17.30;5.88;;;;;;;7.24;100.00;98720.53;5159957;27;20082;-60
2023/10/22 06:15:15;;;;;;;37.13;7.30;;;;;;;7.44;100.00;98718.66;5159992;27;20429;-60
2023/10/22 06:17:41;;;;;;;81.43;7.22;;;;;;;7.41;100.00;98737.69;5159918;27;20055;-60
2023/10/22 06:20:08;;;;;;;61.20;7.78;;;;;;;7.14;100.00;98742.09;5159758;27;20076;-61
2023/10/22 06:22:33;;;;;;;22.77;5.95;;;;;;;7.15;100.00;98741.72;5159739;27;20050;-60
2023/10/22 06:25:00;;;;;;;35.72;7.35;;;;;;;7.00;100.00;98742.53;5158373;27;20085;-61
2023/10/22 06:27:26;;;;;;;51.63;7.22;;;;;;;7.31;100.00;98739.00;5159814;27;20114;-61
2023/10/22 06:29:53;;;;;;;9.77;5.78;;;;;;;7.34;100.00;98746.47;5159497;27;20084;-60
2023/10/22 06:32:20;;;;;;;32.90;7.20;;;;;;;7.31;100.00;98745.25;5159777;27;20100;-60
2023/10/22 06:34:46;;;;;;;26.85;7.53;;;;;;;7.25;100.00;98756.78;5159487;27;20055;-61
2023/10/22 06:37:12;;;;;;;40.00;7.18;;;;;;;7.30;100.00;98756.53;5159804;27;20389;-61
2023/10/22 06:39:38;;;;;;;29.77;6.82;;;;;;;7.06;100.00;98765.66;5159230;27;20075;-60
2023/10/22 06:42:04;;;;;;;32.20;6.80;;;;;;;7.51;100.00;98753.50;5159371;27;20133;-61
2023/10/22 06:44:30;;;;;;;97.22;9.18;;;;;;;7.40;100.00;98761.44;5159317;27;20149;-61
2023/10/22 06:46:56;;;;;;;64.38;8.10;;;;;;;7.33;100.00;98761.28;5159375;27;20143;-61
2023/10/22 06:49:22;;;;;;;12.10;6.30;;;;;;;7.04;100.00;98765.22;5159482;27;20051;-61
2023/10/22 06:51:48;;;;;;;14.13;6.18;;;;;;;7.21;100.00;98758.63;5159193;27;20106;-60
2023/10/22 06:54:14;;;;;;;31.13;6.55;;;;;;;7.28;100.00;98748.69;5159314;27;20054;-60
2023/10/22 06:56:40;;;;;;;24.52;5.53;;;;;;;7.12;100.00;98736.19;5159028;27;20137;-60
2023/10/22 06:59:06;;;;;;;20.67;6.50;;;;;;;7.46;100.00;98724.56;5159397;27;20047;-60
2023/10/22 07:01:32;;;;;;;20.83;6.97;;;;;;;7.60;100.00;98712.38;5159070;27;20082;-61
2023/10/22 07:03:58;;;;;;;35.75;7.07;;;;;;;7.84;100.00;98720.34;5159383;27;20142;-61
2023/10/22 07:06:25;;;;;;;11.43;6.72;;;;;;;7.51;100.00;98737.91;5158680;27;20143;-61
2023/10/22 07:08:50;;;;;;;25.70;6.95;;;;;;;7.71;100.00;98737.97;5159161;27;20133;-61
2023/10/22 07:11:16;;;;;;;16.95;6.63;;;;;;;7.73;100.00;98739.22;5158619;27;20410;-60
2023/10/22 07:13:42;;;;;;;24.27;6.32;;;;;;;7.59;100.00;98755.22;5158809;27;20061;-61
2023/10/22 07:16:08;;;;;;;17.20;6.03;;;;;;;7.45;100.00;98782.97;5158788;27;20133;-61
2023/10/22 07:18:34;;;;;;;10.70;5.53;;;;;;;7.49;100.00;98788.50;5158747;27;20054;-61
2023/10/22 07:21:00;;;;;;;39.22;6.88;;;;;;;7.68;100.00;98772.22;5159029;27;20103;-60
2023/10/22 07:23:31;;;;;;;34.25;6.82;;;;;;;7.32;100.00;98773.31;5158618;27;20051;-61
2023/10/22 07:25:57;;;;;;;29.55;6.72;;;;;;;7.41;100.00;98768.47;5158935;27;20107;-61
2023/10/22 07:28:23;;;;;;;20.30;7.30;;;;;;;7.74;100.00;98757.16;5158654;27;20412;-61
2023/10/22 07:30:49;;;;;;;57.55;8.48;;;;;;;7.96;100.00;98772.06;5159031;27;20047;-61
2023/10/22 07:33:15;;;;;;;21.10;8.30;;;;;;;7.39;100.00;98802.69;5158900;27;20137;-61
2023/10/22 07:36:20;;;;;;;38.20;8.60;;;;;;;7.61;100.00;98774.00;5158656;27;20137;-61
2023/10/22 07:38:51;;;;;;;20.43;6.37;;;;;;;7.38;100.00;98771.91;5158584;27;20107;-61
2023/10/22 07:41:18;;;;;;;31.98;6.40;;;;;;;7.40;100.00;98772.34;5158255;27;20288;-61
2023/10/22 07:43:44;;;;;;;12.35;6.28;;;;;;;7.37;100.00;98762.13;5158687;27;20055;-61
2023/10/22 07:46:10;;;;;;;27.02;7.70;;;;;;;7.83;100.00;98759.69;5158292;27;20176;-61
2023/10/22 07:48:36;;;;;;;34.70;7.13;;;;;;;7.83;100.00;98769.78;5158640;27;20111;-61
2023/10/22 07:51:10;;;;;;;23.10;7.10;;;;;;;8.15;100.00;98771.28;5158198;27;20078;-61
2023/10/22 07:53:36;;;;;;;28.17;6.93;;;;;;;7.85;100.00;98783.88;5158702;27;20047;-61
2023/10/22 07:56:04;;;;;;;56.08;6.65;;;;;;;8.09;100.00;98782.84;5157976;27;20047;-60
2023/10/22 07:58:29;;;;;;;15.38;7.25;;;;;;;7.90;100.00;98789.88;5157924;27;20051;-61
2023/10/22 08:00:55;;;;;;;13.70;7.03;;;;;;;7.79;100.00;98797.78;5158331;27;20061;-61
2023/10/22 08:03:21;;;;;;;19.73;6.13;;;;;;;7.62;100.00;98787.25;5157997;27;20370;-60
2023/10/22 08:05:47;;;;;;;19.17;6.07;;;;;;;7.85;100.00;98776.47;5158261;27;20042;-61
2023/10/22 08:08:13;;;;;;;41.30;6.57;;;;;;;7.92;100.00;98778.59;5158140;27;20141;-61
2023/10/22 08:10:39;;;;;;;20.90;6.90;;;;;;;8.13;100.00;98768.13;5158293;27;20053;-61
2023/10/22 08:13:06;;;;;;;13.23;5.88;;;;;;;7.83;100.00;98786.16;5158008;27;20416;-61
2023/10/22 08:15:34;;;;;;;19.02;7.65;;;;;;;8.32;100.00;98789.19;5158206;27;20046;-61
2023/10/22 08:18:00;;;;;;;16.92;7.50;;;;;;;8.45;100.00;98798.06;5157782;27;20055;-61
2023/10/22 08:20:26;;;;;;;13.80;7.90;;;;;;;8.05;100.00;98799.16;5158357;27;20043;-61
2023/10/22 08:22:52;;;;;;;16.38;6.85;;;;;;;7.93;100.00;98804.72;5157831;27;20093;-61
2023/10/22 08:25:18;;;;;;;24.35;6.68;;;;;;;8.10;100.00;98792.63;5158256;27;20578;-61
2023/10/22 08:27:44;;;;;;;36.13;7.20;;;;;;;8.17;100.00;98788.13;5158051;27;20061;-61
2023/10/22 08:30:12;;;;;;;22.75;6.97;;;;;;;8.10;100.00;98787.97;5157970;27;20046;-61
2023/10/22 08:32:44;;;;;;;13.55;6.40;;;;;;;8.28;100.00;98788.34;5157859;27;20057;-61
2023/10/22 08:35:10;;;;;;;21.73;6.93;;;;;;;8.19;100.00;98782.28;5157763;27;20100;-61
2023/10/22 08:37:35;;;;;;;26.02;7.60;;;;;;;8.08;100.00;98764.91;5157878;27;20150;-61
2023/10/22 08:40:01;;;;;;;14.80;6.78;;;;;;;8.49;100.00;98758.72;5157533;27;20050;-61
2023/10/22 08:42:29;;;;;;;19.02;6.95;;;;;;;8.05;100.00;98788.22;5157998;27;20046;-61
2023/10/22 08:44:55;;;;;;;22.27;7.22;;;;;;;8.01;100.00;98771.00;5157712;27;20152;-61
2023/10/22 08:47:22;;;;;;;19.50;6.95;;;;;;;8.08;100.00;98765.69;5157462;27;20069;-61
2023/10/22 08:49:49;;;;;;;31.73;7.15;;;;;;;8.02;100.00;98761.66;5161142;27;20049;-61
2023/10/22 08:52:15;;;;;;;28.48;8.50;;;;;;;8.14;100.00;98752.53;5161632;27;20112;-61
2023/10/22 08:54:41;;;;;;;18.42;7.63;;;;;;;8.25;100.00;98734.44;5161072;27;20232;-61
2023/10/22 08:57:07;;;;;;;29.13;8.27;;;;;;;7.91;100.00;98738.78;5161210;27;20066;-61
2023/10/22 08:59:34;;;;;;;17.80;7.88;;;;;;;8.07;100.00;98722.38;5161013;27;20054;-61
2023/10/22 09:02:03;;;;;;;21.70;8.43;;;;;;;8.22;100.00;98732.41;5161179;27;20057;-61
2023/10/22 09:04:32;;;;;;;18.73;7.68;;;;;;;8.37;100.00;98728.81;5161298;27;20318;-61
2023/10/22 09:06:58;;;;;;;44.42;7.75;;;;;;;8.16;100.00;98742.84;5160988;27;20061;-60
2023/10/22 09:09:27;;;;;;;24.02;8.07;;;;;;;8.10;100.00;98744.28;5161165;27;20050;-61
2023/10/22 09:11:54;;;;;;;17.23;7.95;;;;;;;8.18;100.00;98729.63;5160638;27;20050;-61
2023/10/22 09:14:24;;;;;;;130.82;10.10;;;;;;;8.07;100.00;98725.09;5161255;27;20054;-60
2023/10/22 09:16:50;;;;;;;31.15;8.27;;;;;;;8.19;100.00;98735.88;5160625;27;20137;-60
2023/10/22 09:19:36;;;;;;;32.08;8.93;;;;;;;8.06;100.00;98745.34;5161137;27;20300;-60
2023/10/22 09:22:03;;;;;;;16.17;7.40;;;;;;;7.94;100.00;98710.78;5161000;27;20054;-61
2023/10/22 09:24:29;;;;;;;35.05;7.80;;;;;;;8.08;100.00;98702.09;5160734;27;20050;-61
2023/10/22 09:26:55;;;;;;;31.67;8.63;;;;;;;7.69;100.00;98689.19;5160886;27;20066;-61
2023/10/22 09:29:21;;;;;;;18.63;7.88;;;;;;;8.27;100.00;98669.31;5160667;27;20047;-61
2023/10/22 09:31:50;;;;;;;36.88;9.13;;;;;;;8.42;100.00;98684.06;5160855;27;20043;-61
2023/10/22 09:34:26;;;;;;;29.67;8.48;;;;;;;8.41;100.00;98691.47;5160530;27;20046;-61
2023/10/22 09:36:53;;;;;;;60.78;10.10;;;;;;;8.42;100.00;98708.66;5160649;27;20345;-61
2023/10/22 09:39:33;;;;;;;20.95;7.88;;;;;;;8.33;100.00;98695.19;5160349;27;20133;-61
2023/10/22 09:42:00;;;;;;;19.17;8.02;;;;;;;8.26;100.00;98697.78;5160503;27;20062;-61
2023/10/22 09:44:26;;;;;;;22.90;8.10;;;;;;;8.23;100.00;98690.28;5160322;27;20092;-61
2023/10/22 09:46:54;;;;;;;23.95;8.13;;;;;;;8.09;100.00;98695.47;5160449;27;20146;-61
2023/10/22 09:49:22;;;;;;;16.13;8.30;;;;;;;8.52;100.00;98685.41;5160532;27;20119;-61
2023/10/22 09:51:51;;;;;;;13.05;7.07;;;;;;;8.05;100.00;98706.34;5160167;27;20047;-60
2023/10/22 09:54:21;;;;;;;12.65;7.28;;;;;;;8.20;100.00;98688.31;5160263;27;20082;-61
2023/10/22 09:56:51;;;;;;;18.67;8.52;;;;;;;8.53;100.00;98685.06;5160084;27;20133;-60
2023/10/22 09:59:18;;;;;;;10.85;7.28;;;;;;;8.33;100.00;98691.66;5160471;27;20241;-61
2023/10/22 10:01:44;;;;;;;13.43;7.47;;;;;;;8.61;100.00;98696.91;5160032;27;20439;-61
2023/10/22 10:04:11;;;;;;;22.58;7.60;;;;;;;8.25;100.00;98721.56;5160125;27;20046;-60
2023/10/22 10:06:39;;;;;;;19.95;7.05;;;;;;;8.22;100.00;98699.66;5159847;27;20054;-62
2023/10/22 10:09:05;;;;;;;22.45;9.43;;;;;;;8.34;100.00;98704.97;5160181;27;20111;-62
2023/10/22 10:11:34;;;;;;;17.25;7.47;;;;;;;8.52;100.00;98701.81;5159879;27;20190;-61
2023/10/22 10:14:11;;;;;;;16.30;6.93;;;;;;;8.53;100.00;98697.91;5160094;27;20046;-62
2023/10/22 10:16:41;;;;;;;12.63;7.65;;;;;;;8.44;100.00;98695.44;5159918;27;20051;-62
2023/10/22 10:19:08;;;;;;;38.40;9.05;;;;;;;8.42;100.00;98686.78;5159701;27;20046;-62
2023/10/22 10:21:43;;;;;;;14.90;8.30;;;;;;;8.66;100.00;98691.13;5160178;27;20042;-62
2023/10/22 10:24:17;;;;;;;37.00;9.95;;;;;;;8.43;100.00;98708.31;5159704;27;20058;-62
2023/10/22 10:26:44;;;;;;;12.70;7.93;;;;;;;8.23;100.00;98696.56;5160159;27;20316;-62
2023/10/22 10:29:13;;;;;;;16.65;8.30;;;;;;;8.81;100.00;98665.63;5159540;27;20042;-61
2023/10/22 10:31:39;;;;;;;23.05;8.45;;;;;;;8.66;100.00;98691.94;5159561;27;20070;-61
2023/10/22 10:34:05;;;;;;;28.75;9.10;;;;;;;8.54;100.00;98705.75;5159604;27;20057;-62
2023/10/22 10:36:32;;;;;;;22.80;8.45;;;;;;;8.41;100.00;98690.69;5159405;27;20054;-62
2023/10/22 10:39:32;;;;;;;16.25;9.13;;;;;;;8.40;100.00;98689.91;5159759;27;20061;-62
2023/10/22 10:41:58;;;;;;;18.73;8.75;;;;;;;8.64;100.00;98687.97;5159355;27;20480;-62
2023/10/22 10:44:24;;;;;;;35.47;12.02;;;;;;;8.84;100.00;98716.84;5159710;27;20043;-61
2023/10/22 10:46:50;;;;;;;22.05;8.23;;;;;;;8.55;100.00;98766.66;5159079;27;20065;-60
2023/10/22 10:49:53;;;;;;;25.45;9.75;;;;;;;8.93;100.00;98785.75;5159757;27;20051;-61
2023/10/22 10:52:19;;;;;;;25.15;10.82;;;;;;;9.07;100.00;98781.69;5159366;27;20106;-61
2023/10/22 10:54:58;;;;;;;59.40;17.25;;;;;;;8.91;100.00;98785.31;5159411;27;20078;-61
2023/10/22 10:57:33;;;;;;;25.20;11.70;;;;;;;9.16;100.00;98785.75;5159570;27;20078;-61
2023/10/22 10:59:59;;;;;;;20.95;9.93;;;;;;;8.63;100.00;98821.09;5159201;27;20176;-62
2023/10/22 11:02:25;;;;;;;22.35;9.18;;;;;;;8.65;100.00;98790.66;5159589;27;20062;-61
2023/10/22 11:04:51;;;;;;;23.63;11.15;;;;;;;9.06;100.00;98756.25;5159047;27;20133;-61
2023/10/22 11:07:19;;;;;;;35.50;8.88;;;;;;;8.63;100.00;98763.72;5159525;27;20046;-61
2023/10/22 11:09:46;;;;;;;22.25;8.75;;;;;;;8.76;100.00;98744.41;5158995;27;20145;-61
2023/10/22 11:12:13;;;;;;;31.88;9.70;;;;;;;8.42;100.00;98735.97;5158235;27;20404;-61
2023/10/22 11:14:39;;;;;;;27.45;10.48;;;;;;;8.85;100.00;98704.75;5159207;27;20142;-61
2023/10/22 11:17:06;;;;;;;25.40;9.23;;;;;;;8.77;100.00;98707.72;5158746;27;20186;-61
2023/10/22 11:19:33;;;;;;;25.90;10.48;;;;;;;8.77;100.00;98689.38;5159044;27;20137;-62
2023/10/22 11:21:59;;;;;;;23.17;8.90;;;;;;;8.80;100.00;98671.47;5158667;27;20099;-62
2023/10/22 11:24:28;;;;;;;27.77;9.82;;;;;;;8.60;100.00;98678.94;5159126;27;20137;-62
2023/10/22 11:26:55;;;;;;;62.97;9.52;;;;;;;8.43;100.00;98677.44;5158832;27;20107;-63